createdAt,value
2024-01-06T00:02:04.807Z,8.10
2024-01-06T00:10:29.250Z,9.40
2024-01-06T00:18:58.080Z,8.40
2024-01-06T00:27:23.270Z,8.70
2024-01-06T00:35:48.784Z,8.80
2024-01-06T00:44:13.515Z,7.80
2024-01-06T00:52:41.011Z,9.10
2024-01-06T01:01:07.026Z,8.30
2024-01-06T01:09:31.667Z,6.20
2024-01-06T01:17:55.582Z,7.40
2024-01-06T01:26:19.801Z,8.90
2024-01-06T01:34:44.221Z,7.70
2024-01-06T01:43:16.903Z,8.10
2024-01-06T01:51:44.634Z,5.30
2024-01-06T02:00:16.386Z,7.20
2024-01-06T02:08:41.017Z,7.50
2024-01-06T02:17:06.783Z,7.60
2024-01-06T02:25:31.654Z,7.90
2024-01-06T02:33:56.982Z,10.20
2024-01-06T02:42:45.807Z,7.20
2024-01-06T02:51:11.965Z,10.40
2024-01-06T02:59:37.246Z,9.70
2024-01-06T03:08:02.226Z,9.00
2024-01-06T03:16:26.801Z,9.70
2024-01-06T03:24:51.965Z,6.70
2024-01-06T03:33:17.681Z,9.00
2024-01-06T03:41:43.860Z,9.20
2024-01-06T03:50:09.082Z,8.80
2024-01-06T03:58:34.595Z,8.30
2024-01-06T04:06:58.873Z,7.30
2024-01-06T04:15:23.686Z,8.00
2024-01-06T04:23:48.946Z,8.50
2024-01-06T04:32:12.470Z,6.40
2024-01-06T04:40:36.590Z,9.60
2024-01-06T04:49:01.759Z,7.50
2024-01-06T04:57:26.417Z,6.60
2024-01-06T05:05:51.119Z,7.90
2024-01-06T05:14:14.542Z,8.60
2024-01-06T05:22:38.790Z,8.70
2024-01-06T05:31:04.699Z,6.40
2024-01-06T05:39:33.831Z,7.60
2024-01-06T05:47:57.342Z,6.10
2024-01-06T05:56:27.415Z,6.30
2024-01-06T06:04:54.423Z,8.30
2024-01-06T06:13:21.289Z,6.70
2024-01-06T06:21:47.643Z,7.50
2024-01-06T06:30:15.063Z,7.50
2024-01-06T06:38:40.956Z,8.00
2024-01-06T06:47:05.483Z,7.20
2024-01-06T06:55:29.483Z,6.00
2024-01-06T07:03:53.711Z,8.00
2024-01-06T07:12:20.723Z,6.60
2024-01-06T07:20:45.217Z,6.50
2024-01-06T07:29:12.519Z,6.80
2024-01-06T07:37:36.734Z,6.10
2024-01-06T07:46:05.020Z,4.40
2024-01-06T07:54:30.671Z,5.70
2024-01-06T08:02:57.479Z,6.40
2024-01-06T08:11:23.560Z,7.20
2024-01-06T08:19:49.489Z,5.70
2024-01-06T08:28:15.994Z,5.70
2024-01-06T08:36:42.530Z,5.00
2024-01-06T08:45:07.078Z,6.30
2024-01-06T08:53:33.482Z,8.30
2024-01-06T09:01:58.283Z,5.70
2024-01-06T09:10:23.216Z,7.10
2024-01-06T09:18:49.226Z,7.30
2024-01-06T09:27:14.221Z,8.00
2024-01-06T09:35:40.790Z,8.70
2024-01-06T09:44:05.942Z,10.30
2024-01-06T09:52:33.762Z,7.90
2024-01-06T10:01:00.761Z,8.20
2024-01-06T10:09:29.525Z,9.20
2024-01-06T10:17:55.922Z,8.10
2024-01-06T10:26:21.724Z,6.80
2024-01-06T10:34:47.829Z,9.30
2024-01-06T10:43:13.060Z,13.60
2024-01-06T10:51:39.226Z,10.30
2024-01-06T11:00:06.858Z,9.40
2024-01-06T11:08:34.954Z,17.30
2024-01-06T11:16:59.099Z,8.30
2024-01-06T11:25:24.299Z,9.00
2024-01-06T11:33:52.496Z,8.60
2024-01-06T11:42:17.873Z,9.60
2024-01-06T11:50:43.767Z,8.30
2024-01-06T11:59:07.862Z,9.30
2024-01-06T12:07:35.541Z,10.80
2024-01-06T12:16:02.643Z,10.30
2024-01-06T12:24:29.664Z,18.30
2024-01-06T12:32:54.020Z,7.20
2024-01-06T12:41:20.010Z,11.70
2024-01-06T12:49:47.487Z,8.40
2024-01-06T12:58:13.417Z,9.00
2024-01-06T13:06:38.550Z,8.30
2024-01-06T13:15:02.807Z,7.50
2024-01-06T13:23:30.240Z,7.50
2024-01-06T13:31:56.270Z,9.20
2024-01-06T13:40:21.205Z,7.40
2024-01-06T13:48:48.483Z,11.10
2024-01-06T13:57:12.429Z,13.90
2024-01-06T14:05:39.727Z,8.40
2024-01-06T14:14:04.061Z,7.20
2024-01-06T14:22:27.744Z,8.10
2024-01-06T14:30:55.282Z,5.30
2024-01-06T14:39:23.113Z,6.00
2024-01-06T14:47:49.851Z,6.90
2024-01-06T14:56:15.654Z,5.30
2024-01-06T15:04:40.292Z,6.20
2024-01-06T15:13:06.291Z,6.30
2024-01-06T15:21:34.844Z,7.30
2024-01-06T15:29:59.255Z,5.20
2024-01-06T15:38:24.202Z,5.40
2024-01-06T15:46:49.252Z,5.10
2024-01-06T15:55:13.718Z,5.90
2024-01-06T16:03:38.444Z,2.70
2024-01-06T16:12:05.417Z,3.30
2024-01-06T16:20:30.254Z,3.00
2024-01-06T16:28:54.345Z,4.00
2024-01-06T16:37:18.940Z,4.50
2024-01-06T16:45:45.851Z,3.80
2024-01-06T16:54:10.116Z,4.50
2024-01-06T17:02:35.776Z,4.00
2024-01-06T17:10:59.992Z,2.20
2024-01-06T17:19:23.705Z,3.20
2024-01-06T17:27:49.234Z,4.50
2024-01-06T17:36:15.398Z,3.30
2024-01-06T17:44:44.293Z,2.70
2024-01-06T17:53:08.471Z,2.70
2024-01-06T18:01:33.341Z,3.20
2024-01-06T18:09:57.978Z,2.70
2024-01-06T18:18:22.564Z,2.20
2024-01-06T18:26:49.383Z,2.90
2024-01-06T18:35:15.535Z,2.80
2024-01-06T18:43:41.122Z,2.20
2024-01-06T18:52:07.221Z,3.60
2024-01-06T19:00:32.779Z,2.10
2024-01-06T19:08:57.504Z,3.70
2024-01-06T19:17:25.678Z,3.30
2024-01-06T19:25:53.190Z,2.50
2024-01-06T19:34:18.431Z,4.20
2024-01-06T19:42:45.536Z,4.20
2024-01-06T19:51:09.614Z,11.10
2024-01-06T19:59:33.929Z,3.30
2024-01-06T20:07:59.234Z,4.20
2024-01-06T20:16:23.682Z,2.90
2024-01-06T20:24:47.124Z,3.00
2024-01-06T20:33:11.683Z,3.30
2024-01-06T20:41:36.950Z,2.10
2024-01-06T20:50:02.278Z,2.60
2024-01-06T20:58:27.492Z,3.50
2024-01-06T21:06:53.744Z,3.10
2024-01-06T21:15:19.345Z,4.70
2024-01-06T21:23:48.561Z,2.60
2024-01-06T21:32:18.911Z,4.80
2024-01-06T21:40:48.140Z,3.20
2024-01-06T21:49:12.088Z,5.40
2024-01-06T21:57:36.739Z,4.00
2024-01-06T22:06:02.468Z,3.60
2024-01-06T22:14:25.649Z,4.20
2024-01-06T22:22:51.609Z,3.60
2024-01-06T22:31:18.643Z,3.40
2024-01-06T22:39:53.793Z,4.00
2024-01-06T22:48:19.097Z,2.90
2024-01-06T22:56:45.023Z,4.90
2024-01-06T23:05:10.013Z,2.00
2024-01-06T23:13:34.655Z,3.70
2024-01-06T23:22:00.252Z,2.80
2024-01-06T23:30:24.829Z,3.30
2024-01-06T23:38:48.899Z,3.50
2024-01-06T23:47:16.422Z,2.30
2024-01-06T23:55:45.322Z,3.50
